North Lakewood, WA (98259)

6:13 AM PST on January 30, 2015 (GMT -0800)
Lake Goodwin | Change Station
CLOSE
Current Station
Personal Weather Station
Location: Stanwood, WA
Elevation: 350 ft
Nearby Weather Stations

Elev 350 ft 48.15 °N, 122.29 °W | Updated 3 seconds ago

Mostly Cloudy
Mostly Cloudy
33.4 °F
Feels Like 33 °F
N
0.0
Wind Variable Wind from SE
Gusts 0.0 mph

Today
High -- | Low -- °F
--% Chance of Precip.
Yesterday
High -- | Low -- °F
Precip. -- in
7:40 AM 5:05 PM
Waxing Gibbous, 83% visible
Pressure 30.33 in
Visibility 0.2 miles
Clouds Overcast 100 ft
Windchill 33 °F
Dew Point 33 °F
Humidity 99%
Rainfall 0.00 in
Snow Depth Not available.
UV 0 out of 12
Pollen 4.60 out of 12
Air Quality Not available.
Flu Activity Not available.
METAR KAWO 301355Z AUTO 00000KT 1/4SM OVC001 M01/M03 A3033 RMK AO1

More Conditions Fewer Conditions

Pressure 30.33 in
Visibility 0.2 miles
Clouds Overcast 100 ft
Windchill 33 °F
Dew Point 33 °F
Humidity 99%
Rainfall 0.00 in
Snow Depth Not available.
UV 0 out of 12
Pollen 4.60 out of 12
Air Quality Not available.
Flu Activity Not available.
METAR KAWO 301355Z AUTO 00000KT 1/4SM OVC001 M01/M03 A3033 RMK AO1

More Conditions Fewer Conditions

10-Day Weather Forecast

Almanac

Astronomy

Jan. 30, 2015 Rise Set
Actual Time
Civil Twilight
Nautical Twilight
Astronomical Twilight
Moon
Length of Visible Light
Length of Day
Tomorrow will be .
, % of the Moon is Illuminated

Today's Extremes

State Highs State Lows

Community

WunderPhotos

Upload Photos

1,791,762 photos uploaded!

WunderBlogs® & News

Nearby

Air Quality

  Air Quality AQ Index Pollutant
Not available.

Snow Depth

Station Depth Elevation

Earthquake Activity

City Distance Mag. Time & Date
Minimum magnitude displayed is 2.5.

Coastal Water Temperatures

Place Temperature

Nearby Weather Stations